JAL6019 RJAA-RJCC
Flight info
| Callsign | JAL6019 |
|---|---|
| Flight time | 1h 23m |
| Altitude | 41000 |
| Route | KIMIN Y117 LEKOL Y119 OHMAR Y13 SIRAO Y139 NAVER |
| Aircraft | A359/H-SDE2E3GHIJ3J4J5LM1ORWXY/LB1D1 |
Departure
| Time | 2026-02-19 10:38 |
|---|---|
| Airport | Narita International Airport (RJAA) |
Arrival
| Time | 2026-02-19 12:01 |
|---|---|
| Airport | New Chitose Airport (RJCC) |
| Time | Latitude | Longitude | Altitude | Speed | Heading |
|---|---|---|---|---|---|
| 2026-02-19 10:13 | 35.76848 | 140.39259 | 150 ft | 0 kts | 294° |
| 2026-02-19 10:22 | 35.76846 | 140.39264 | 150 ft | 2 kts | 294° |
| 2026-02-19 10:23 | 35.76838 | 140.39285 | 150 ft | 3 kts | 291° |
| 2026-02-19 10:23 | 35.76831 | 140.39308 | 150 ft | 3 kts | 287° |
| 2026-02-19 10:23 | 35.76826 | 140.39332 | 150 ft | 3 kts | 278° |
| 2026-02-19 10:23 | 35.76824 | 140.39355 | 150 ft | 3 kts | 261° |
| 2026-02-19 10:24 | 35.76828 | 140.39373 | 150 ft | 3 kts | 231° |
| 2026-02-19 10:24 | 35.76834 | 140.39382 | 150 ft | 0 kts | 205° |
| 2026-02-19 10:27 | 35.76831 | 140.39380 | 150 ft | 2 kts | 205° |
| 2026-02-19 10:27 | 35.76807 | 140.39366 | 150 ft | 6 kts | 205° |
| 2026-02-19 10:28 | 35.76761 | 140.39340 | 150 ft | 10 kts | 201° |
| 2026-02-19 10:28 | 35.76663 | 140.39384 | 150 ft | 11 kts | 178° |
| 2026-02-19 10:28 | 35.76575 | 140.39351 | 150 ft | 15 kts | 204° |
| 2026-02-19 10:29 | 35.76474 | 140.39294 | 150 ft | 17 kts | 204° |
| 2026-02-19 10:29 | 35.76354 | 140.39230 | 150 ft | 20 kts | 204° |
| 2026-02-19 10:29 | 35.76223 | 140.39157 | 150 ft | 22 kts | 201° |
| 2026-02-19 10:29 | 35.76077 | 140.39083 | 149 ft | 24 kts | 204° |
| 2026-02-19 10:30 | 35.75951 | 140.39084 | 150 ft | 16 kts | 149° |
| 2026-02-19 10:30 | 35.75851 | 140.39157 | 150 ft | 18 kts | 150° |
| 2026-02-19 10:30 | 35.75749 | 140.39201 | 150 ft | 8 kts | 195° |
| 2026-02-19 10:30 | 35.75712 | 140.39149 | 150 ft | 12 kts | 233° |
| 2026-02-19 10:31 | 35.75625 | 140.39077 | 150 ft | 18 kts | 203° |
| 2026-02-19 10:31 | 35.75503 | 140.39011 | 150 ft | 20 kts | 204° |
| 2026-02-19 10:31 | 35.75370 | 140.38936 | 151 ft | 22 kts | 204° |
| 2026-02-19 10:31 | 35.75224 | 140.38855 | 151 ft | 24 kts | 204° |
| 2026-02-19 10:32 | 35.75073 | 140.38798 | 151 ft | 18 kts | 166° |
| 2026-02-19 10:32 | 35.74874 | 140.38937 | 151 ft | 19 kts | 150° |
| 2026-02-19 10:32 | 35.74755 | 140.39022 | 151 ft | 21 kts | 150° |
| 2026-02-19 10:33 | 35.74622 | 140.39119 | 150 ft | 23 kts | 149° |
| 2026-02-19 10:33 | 35.74479 | 140.39222 | 150 ft | 17 kts | 150° |
| 2026-02-19 10:33 | 35.74422 | 140.39215 | 150 ft | 4 kts | 224° |
| 2026-02-19 10:33 | 35.74419 | 140.39209 | 150 ft | 0 kts | 231° |
| 2026-02-19 10:34 | 35.74408 | 140.39192 | 150 ft | 6 kts | 232° |
| 2026-02-19 10:35 | 35.74371 | 140.39118 | 148 ft | 13 kts | 245° |
| 2026-02-19 10:35 | 35.74385 | 140.39037 | 148 ft | 10 kts | 326° |
| 2026-02-19 10:35 | 35.74395 | 140.39029 | 148 ft | 0 kts | 328° |
| 2026-02-19 10:37 | 35.74396 | 140.39029 | 148 ft | 0 kts | 328° |
| 2026-02-19 10:37 | 35.74513 | 140.38939 | 149 ft | 54 kts | 329° |
| 2026-02-19 10:37 | 35.75051 | 140.38554 | 150 ft | 123 kts | 329° |
| 2026-02-19 10:37 | 35.75952 | 140.37896 | 256 ft | 169 kts | 328° |
| 2026-02-19 10:38 | 35.76912 | 140.37191 | 1144 ft | 155 kts | 327° |
| 2026-02-19 10:38 | 35.77843 | 140.36497 | 1869 ft | 158 kts | 328° |
| 2026-02-19 10:38 | 35.78793 | 140.35808 | 2507 ft | 160 kts | 329° |
| 2026-02-19 10:38 | 35.79756 | 140.35116 | 3162 ft | 160 kts | 329° |
| 2026-02-19 10:39 | 35.80760 | 140.34388 | 3572 ft | 179 kts | 329° |
| 2026-02-19 10:39 | 35.81913 | 140.33560 | 3848 ft | 205 kts | 331° |
| 2026-02-19 10:39 | 35.83232 | 140.32635 | 4196 ft | 230 kts | 330° |
| 2026-02-19 10:39 | 35.84674 | 140.31607 | 4726 ft | 246 kts | 330° |
| 2026-02-19 10:40 | 35.86180 | 140.30527 | 5494 ft | 253 kts | 329° |
| 2026-02-19 10:40 | 35.89283 | 140.28281 | 6846 ft | 262 kts | 328° |
| 2026-02-19 10:40 | 35.90842 | 140.27160 | 7572 ft | 264 kts | 328° |
| 2026-02-19 10:41 | 35.92424 | 140.26019 | 8590 ft | 263 kts | 327° |
| 2026-02-19 10:41 | 35.94027 | 140.24863 | 9567 ft | 264 kts | 327° |
| 2026-02-19 10:41 | 35.95610 | 140.23759 | 10474 ft | 269 kts | 329° |
| 2026-02-19 10:41 | 35.97456 | 140.23004 | 10952 ft | 294 kts | 348° |
| 2026-02-19 10:42 | 35.99586 | 140.23199 | 11350 ft | 325 kts | 12° |
| 2026-02-19 10:42 | 36.01627 | 140.24617 | 11909 ft | 350 kts | 35° |
| 2026-02-19 10:42 | 36.03236 | 140.26951 | 12687 ft | 366 kts | 53° |
| 2026-02-19 10:42 | 36.04209 | 140.29929 | 13391 ft | 385 kts | 73° |
| 2026-02-19 10:43 | 36.04450 | 140.33285 | 14003 ft | 400 kts | 85° |
| 2026-02-19 10:43 | 36.04441 | 140.36759 | 14647 ft | 409 kts | 87° |
| 2026-02-19 10:43 | 36.04419 | 140.39153 | 15100 ft | 414 kts | 87° |
| 2026-02-19 10:43 | 36.03898 | 140.43884 | 15953 ft | 429 kts | 107° |
| 2026-02-19 10:44 | 36.02590 | 140.47236 | 16631 ft | 437 kts | 121° |
| 2026-02-19 10:44 | 35.99886 | 140.52591 | 17802 ft | 447 kts | 126° |
| 2026-02-19 10:44 | 35.97904 | 140.55572 | 18444 ft | 452 kts | 135° |
| 2026-02-19 10:45 | 35.95738 | 140.58412 | 19122 ft | 456 kts | 137° |
| 2026-02-19 10:45 | 35.93527 | 140.61239 | 19842 ft | 459 kts | 139° |
| 2026-02-19 10:45 | 35.91081 | 140.63751 | 20506 ft | 457 kts | 152° |
| 2026-02-19 10:45 | 35.88259 | 140.65437 | 21177 ft | 447 kts | 169° |
| 2026-02-19 10:46 | 35.85254 | 140.66146 | 21803 ft | 435 kts | 185° |
| 2026-02-19 10:46 | 35.82287 | 140.65891 | 22459 ft | 421 kts | 200° |
| 2026-02-19 10:46 | 35.79553 | 140.64791 | 23101 ft | 408 kts | 214° |
| 2026-02-19 10:46 | 35.77186 | 140.62986 | 23699 ft | 396 kts | 227° |
| 2026-02-19 10:47 | 35.75270 | 140.60621 | 24330 ft | 386 kts | 239° |
| 2026-02-19 10:47 | 35.73862 | 140.57857 | 24940 ft | 378 kts | 251° |
| 2026-02-19 10:47 | 35.72997 | 140.54839 | 25565 ft | 372 kts | 262° |
| 2026-02-19 10:47 | 35.72677 | 140.51710 | 26183 ft | 368 kts | 271° |
| 2026-02-19 10:48 | 35.72702 | 140.48551 | 26786 ft | 369 kts | 274° |
| 2026-02-19 10:48 | 35.73114 | 140.42226 | 27924 ft | 373 kts | 281° |
| 2026-02-19 10:48 | 35.73760 | 140.39137 | 28470 ft | 375 kts | 287° |
| 2026-02-19 10:49 | 35.74614 | 140.36101 | 29013 ft | 376 kts | 289° |
| 2026-02-19 10:49 | 35.75517 | 140.33067 | 29510 ft | 379 kts | 290° |
| 2026-02-19 10:49 | 35.76686 | 140.30146 | 29972 ft | 384 kts | 298° |
| 2026-02-19 10:49 | 35.78333 | 140.27516 | 30434 ft | 392 kts | 308° |
| 2026-02-19 10:50 | 35.80453 | 140.25331 | 30843 ft | 405 kts | 319° |
| 2026-02-19 10:50 | 35.82988 | 140.23697 | 31218 ft | 418 kts | 328° |
| 2026-02-19 10:50 | 35.85703 | 140.22337 | 31554 ft | 424 kts | 330° |
| 2026-02-19 10:50 | 35.88455 | 140.21009 | 31936 ft | 426 kts | 330° |
| 2026-02-19 10:51 | 35.91223 | 140.19663 | 32240 ft | 429 kts | 329° |
| 2026-02-19 10:51 | 35.94010 | 140.18292 | 32540 ft | 433 kts | 329° |
| 2026-02-19 10:51 | 35.96814 | 140.16906 | 32875 ft | 435 kts | 329° |
| 2026-02-19 10:51 | 35.99617 | 140.15520 | 33307 ft | 434 kts | 329° |
| 2026-02-19 10:52 | 36.02418 | 140.14137 | 33730 ft | 433 kts | 329° |
| 2026-02-19 10:52 | 36.08016 | 140.11381 | 34501 ft | 435 kts | 331° |
| 2026-02-19 10:52 | 36.10939 | 140.10290 | 34869 ft | 443 kts | 337° |
| 2026-02-19 10:53 | 36.14027 | 140.09670 | 35156 ft | 456 kts | 345° |
| 2026-02-19 10:53 | 36.17195 | 140.09595 | 35461 ft | 468 kts | 351° |
| 2026-02-19 10:53 | 36.20461 | 140.09834 | 35739 ft | 472 kts | 353° |
| 2026-02-19 10:53 | 36.23738 | 140.10146 | 36063 ft | 473 kts | 354° |
| 2026-02-19 10:54 | 36.27026 | 140.10461 | 36340 ft | 474 kts | 353° |
| 2026-02-19 10:54 | 36.30321 | 140.10766 | 36577 ft | 476 kts | 353° |
| 2026-02-19 10:54 | 36.33624 | 140.11068 | 36864 ft | 476 kts | 353° |
| 2026-02-19 10:54 | 36.36919 | 140.11365 | 37207 ft | 475 kts | 353° |
| 2026-02-19 10:55 | 36.40211 | 140.11660 | 37527 ft | 473 kts | 353° |
| 2026-02-19 10:55 | 36.43486 | 140.11954 | 37884 ft | 471 kts | 353° |
| 2026-02-19 10:55 | 36.46754 | 140.12244 | 38163 ft | 471 kts | 353° |
| 2026-02-19 10:55 | 36.50023 | 140.12534 | 38393 ft | 472 kts | 353° |
| 2026-02-19 10:56 | 36.53298 | 140.12828 | 38609 ft | 473 kts | 353° |
| 2026-02-19 10:56 | 36.59901 | 140.13560 | 38944 ft | 478 kts | 354° |
| 2026-02-19 10:56 | 36.63214 | 140.13976 | 39163 ft | 479 kts | 355° |
| 2026-02-19 10:57 | 36.66530 | 140.14410 | 39382 ft | 480 kts | 355° |
| 2026-02-19 10:57 | 36.69852 | 140.14841 | 39594 ft | 480 kts | 355° |
| 2026-02-19 10:57 | 36.73172 | 140.15259 | 39828 ft | 479 kts | 355° |
| 2026-02-19 10:57 | 36.76502 | 140.15665 | 39958 ft | 481 kts | 354° |
| 2026-02-19 10:58 | 36.79833 | 140.16057 | 40137 ft | 481 kts | 354° |
| 2026-02-19 10:58 | 36.83167 | 140.16446 | 40327 ft | 482 kts | 354° |
| 2026-02-19 10:58 | 36.86502 | 140.16837 | 40524 ft | 482 kts | 355° |
| 2026-02-19 10:58 | 36.89850 | 140.17436 | 40712 ft | 488 kts | 359° |
| 2026-02-19 10:59 | 36.93209 | 140.18179 | 40860 ft | 491 kts | 0° |
| 2026-02-19 10:59 | 36.96567 | 140.18968 | 41005 ft | 492 kts | 0° |
| 2026-02-19 10:59 | 36.99930 | 140.19780 | 41129 ft | 494 kts | 1° |
| 2026-02-19 10:59 | 37.03311 | 140.20603 | 41155 ft | 494 kts | 1° |
| 2026-02-19 11:00 | 37.13373 | 140.23048 | 41156 ft | 493 kts | 1° |
| 2026-02-19 11:01 | 37.20100 | 140.24665 | 41156 ft | 492 kts | 1° |
| 2026-02-19 11:01 | 37.26822 | 140.26281 | 41155 ft | 492 kts | 1° |
| 2026-02-19 11:02 | 37.33548 | 140.27900 | 41157 ft | 492 kts | 1° |
| 2026-02-19 11:02 | 37.40267 | 140.29520 | 41158 ft | 491 kts | 1° |
| 2026-02-19 11:03 | 37.46974 | 140.31135 | 41164 ft | 491 kts | 1° |
| 2026-02-19 11:03 | 37.53684 | 140.32758 | 41165 ft | 491 kts | 1° |
| 2026-02-19 11:04 | 37.60406 | 140.34396 | 41165 ft | 492 kts | 1° |
| 2026-02-19 11:04 | 37.70471 | 140.36845 | 41175 ft | 489 kts | 1° |
| 2026-02-19 11:05 | 37.77132 | 140.38473 | 41165 ft | 486 kts | 1° |
| 2026-02-19 11:05 | 37.83771 | 140.40089 | 41165 ft | 486 kts | 1° |
| 2026-02-19 11:06 | 37.90416 | 140.41705 | 41164 ft | 486 kts | 1° |
| 2026-02-19 11:06 | 37.97057 | 140.43329 | 41166 ft | 486 kts | 1° |
| 2026-02-19 11:07 | 38.03702 | 140.44957 | 41167 ft | 486 kts | 2° |
| 2026-02-19 11:07 | 38.10330 | 140.46576 | 41168 ft | 485 kts | 2° |
| 2026-02-19 11:08 | 38.20270 | 140.49029 | 41172 ft | 485 kts | 2° |
| 2026-02-19 11:09 | 38.26899 | 140.50673 | 41177 ft | 485 kts | 2° |
| 2026-02-19 11:09 | 38.33526 | 140.52318 | 41173 ft | 485 kts | 2° |
| 2026-02-19 11:10 | 38.40157 | 140.53955 | 41184 ft | 485 kts | 2° |
| 2026-02-19 11:10 | 38.46745 | 140.55586 | 41185 ft | 486 kts | 2° |
| 2026-02-19 11:11 | 38.53382 | 140.57232 | 41183 ft | 486 kts | 2° |
| 2026-02-19 11:11 | 38.60013 | 140.58884 | 41183 ft | 485 kts | 2° |
| 2026-02-19 11:12 | 38.66639 | 140.60539 | 41183 ft | 485 kts | 2° |
| 2026-02-19 11:12 | 38.76578 | 140.63019 | 41185 ft | 485 kts | 2° |
| 2026-02-19 11:13 | 38.83206 | 140.64682 | 41184 ft | 485 kts | 2° |
| 2026-02-19 11:13 | 38.89831 | 140.66351 | 41171 ft | 486 kts | 3° |
| 2026-02-19 11:14 | 38.96465 | 140.68028 | 41176 ft | 486 kts | 2° |
| 2026-02-19 11:14 | 39.03099 | 140.69700 | 41173 ft | 486 kts | 3° |
| 2026-02-19 11:15 | 39.09735 | 140.71372 | 41164 ft | 486 kts | 3° |
| 2026-02-19 11:15 | 39.16360 | 140.73055 | 41166 ft | 485 kts | 3° |
| 2026-02-19 11:16 | 39.26294 | 140.75568 | 41165 ft | 485 kts | 3° |
| 2026-02-19 11:17 | 39.32913 | 140.77247 | 41165 ft | 485 kts | 3° |
| 2026-02-19 11:17 | 39.39537 | 140.78934 | 41166 ft | 485 kts | 3° |
| 2026-02-19 11:18 | 39.46163 | 140.80620 | 41165 ft | 485 kts | 3° |
| 2026-02-19 11:18 | 39.52783 | 140.82314 | 41165 ft | 485 kts | 3° |
| 2026-02-19 11:19 | 39.59361 | 140.84004 | 41164 ft | 485 kts | 3° |
| 2026-02-19 11:19 | 39.65993 | 140.85707 | 41165 ft | 486 kts | 3° |
| 2026-02-19 11:20 | 39.72641 | 140.87417 | 41165 ft | 487 kts | 4° |
| 2026-02-19 11:20 | 39.82606 | 140.89978 | 41163 ft | 486 kts | 2° |
| 2026-02-19 11:21 | 39.89270 | 140.91082 | 41163 ft | 481 kts | 359° |
| 2026-02-19 11:21 | 39.95924 | 140.91993 | 41165 ft | 481 kts | 358° |
| 2026-02-19 11:22 | 40.02577 | 140.92865 | 41164 ft | 481 kts | 358° |
| 2026-02-19 11:22 | 40.09234 | 140.93721 | 41146 ft | 480 kts | 358° |
| 2026-02-19 11:23 | 40.15890 | 140.94588 | 41148 ft | 481 kts | 358° |
| 2026-02-19 11:23 | 40.22543 | 140.95373 | 41146 ft | 478 kts | 356° |
| 2026-02-19 11:24 | 40.32479 | 140.95670 | 41147 ft | 475 kts | 354° |
| 2026-02-19 11:25 | 40.39092 | 140.95796 | 41145 ft | 476 kts | 354° |
| 2026-02-19 11:25 | 40.45673 | 140.95980 | 41138 ft | 476 kts | 355° |
| 2026-02-19 11:26 | 40.52295 | 140.96196 | 41137 ft | 476 kts | 355° |
| 2026-02-19 11:26 | 40.58917 | 140.96419 | 41138 ft | 476 kts | 355° |
| 2026-02-19 11:27 | 40.65539 | 140.96635 | 41138 ft | 476 kts | 355° |
| 2026-02-19 11:27 | 40.72165 | 140.96853 | 41131 ft | 476 kts | 355° |
| 2026-02-19 11:28 | 40.78796 | 140.97057 | 41128 ft | 476 kts | 354° |
| 2026-02-19 11:28 | 40.88739 | 140.97351 | 41127 ft | 476 kts | 355° |
| 2026-02-19 11:29 | 40.95354 | 140.97561 | 41128 ft | 476 kts | 355° |
| 2026-02-19 11:29 | 41.01971 | 140.97783 | 41128 ft | 476 kts | 355° |
| 2026-02-19 11:30 | 41.07473 | 140.97970 | 41128 ft | 476 kts | 355° |
| 2026-02-19 11:30 | 41.14095 | 140.98189 | 41114 ft | 476 kts | 355° |
| 2026-02-19 11:31 | 41.20722 | 140.98410 | 41123 ft | 476 kts | 355° |
| 2026-02-19 11:31 | 41.28428 | 140.98722 | 41120 ft | 479 kts | 358° |
| 2026-02-19 11:32 | 41.37208 | 141.01689 | 41100 ft | 493 kts | 12° |
| 2026-02-19 11:33 | 41.43667 | 141.04825 | 41114 ft | 494 kts | 14° |
| 2026-02-19 11:33 | 41.50058 | 141.08065 | 40518 ft | 489 kts | 14° |
| 2026-02-19 11:33 | 41.53235 | 141.09662 | 39922 ft | 487 kts | 14° |
| 2026-02-19 11:34 | 41.56369 | 141.11224 | 39359 ft | 485 kts | 14° |
| 2026-02-19 11:34 | 41.58142 | 141.12105 | 39022 ft | 485 kts | 14° |
| 2026-02-19 11:34 | 41.61226 | 141.13632 | 38452 ft | 483 kts | 14° |
| 2026-02-19 11:34 | 41.64374 | 141.15190 | 37924 ft | 480 kts | 14° |
| 2026-02-19 11:35 | 41.67489 | 141.16741 | 37413 ft | 477 kts | 14° |
| 2026-02-19 11:35 | 41.70565 | 141.18549 | 36854 ft | 479 kts | 21° |
| 2026-02-19 11:35 | 41.73393 | 141.20831 | 36296 ft | 483 kts | 30° |
| 2026-02-19 11:35 | 41.75967 | 141.23728 | 35732 ft | 487 kts | 39° |
| 2026-02-19 11:36 | 41.78161 | 141.27214 | 35079 ft | 493 kts | 50° |
| 2026-02-19 11:36 | 41.81080 | 141.35650 | 33637 ft | 508 kts | 71° |
| 2026-02-19 11:36 | 41.81708 | 141.40329 | 32974 ft | 513 kts | 81° |
| 2026-02-19 11:37 | 41.81714 | 141.45120 | 32239 ft | 518 kts | 91° |
| 2026-02-19 11:37 | 41.81041 | 141.49888 | 31405 ft | 524 kts | 103° |
| 2026-02-19 11:37 | 41.79722 | 141.54454 | 30599 ft | 528 kts | 114° |
| 2026-02-19 11:37 | 41.77818 | 141.58661 | 29742 ft | 531 kts | 126° |
| 2026-02-19 11:38 | 41.75273 | 141.62237 | 28970 ft | 531 kts | 141° |
| 2026-02-19 11:38 | 41.72182 | 141.64880 | 28265 ft | 526 kts | 156° |
| 2026-02-19 11:38 | 41.68755 | 141.66437 | 27583 ft | 517 kts | 171° |
| 2026-02-19 11:38 | 41.65212 | 141.66832 | 26928 ft | 505 kts | 187° |
| 2026-02-19 11:39 | 41.61810 | 141.66068 | 26315 ft | 490 kts | 202° |
| 2026-02-19 11:39 | 41.58763 | 141.64239 | 25688 ft | 473 kts | 218° |
| 2026-02-19 11:39 | 41.56276 | 141.61514 | 25067 ft | 454 kts | 234° |
| 2026-02-19 11:39 | 41.54443 | 141.58193 | 24545 ft | 437 kts | 245° |
| 2026-02-19 11:40 | 41.52959 | 141.54734 | 24263 ft | 422 kts | 248° |
| 2026-02-19 11:40 | 41.50469 | 141.47908 | 23480 ft | 398 kts | 256° |
| 2026-02-19 11:40 | 41.49738 | 141.44358 | 22423 ft | 398 kts | 266° |
| 2026-02-19 11:41 | 41.49603 | 141.40692 | 21555 ft | 393 kts | 278° |
| 2026-02-19 11:41 | 41.50085 | 141.37158 | 20856 ft | 384 kts | 290° |
| 2026-02-19 11:41 | 41.51126 | 141.33924 | 20176 ft | 377 kts | 302° |
| 2026-02-19 11:41 | 41.52731 | 141.31217 | 19534 ft | 370 kts | 317° |
| 2026-02-19 11:42 | 41.54739 | 141.29089 | 18861 ft | 367 kts | 324° |
| 2026-02-19 11:42 | 41.56882 | 141.27263 | 18204 ft | 364 kts | 328° |
| 2026-02-19 11:42 | 41.59027 | 141.25558 | 17541 ft | 361 kts | 328° |
| 2026-02-19 11:42 | 41.61159 | 141.23829 | 17080 ft | 357 kts | 327° |
| 2026-02-19 11:43 | 41.66049 | 141.20185 | 16513 ft | 361 kts | 337° |
| 2026-02-19 11:43 | 41.68472 | 141.19303 | 16308 ft | 363 kts | 348° |
| 2026-02-19 11:43 | 41.71016 | 141.19160 | 16295 ft | 369 kts | 0° |
| 2026-02-19 11:44 | 41.73563 | 141.19703 | 16295 ft | 373 kts | 9° |
| 2026-02-19 11:44 | 41.77724 | 141.21514 | 16296 ft | 377 kts | 16° |
| 2026-02-19 11:44 | 41.80165 | 141.22833 | 16296 ft | 378 kts | 17° |
| 2026-02-19 11:45 | 41.83375 | 141.24634 | 16279 ft | 378 kts | 18° |
| 2026-02-19 11:45 | 41.84981 | 141.25524 | 16114 ft | 376 kts | 17° |
| 2026-02-19 11:45 | 41.87384 | 141.26829 | 15574 ft | 370 kts | 17° |
| 2026-02-19 11:45 | 41.89765 | 141.28086 | 14974 ft | 365 kts | 17° |
| 2026-02-19 11:46 | 41.92123 | 141.29312 | 14360 ft | 361 kts | 17° |
| 2026-02-19 11:46 | 41.94461 | 141.30527 | 13741 ft | 359 kts | 19° |
| 2026-02-19 11:46 | 41.96657 | 141.32121 | 13116 ft | 361 kts | 30° |
| 2026-02-19 11:46 | 41.98617 | 141.34230 | 12487 ft | 361 kts | 37° |
| 2026-02-19 11:47 | 42.00466 | 141.36499 | 11848 ft | 359 kts | 39° |
| 2026-02-19 11:47 | 42.02266 | 141.38789 | 11441 ft | 350 kts | 41° |
| 2026-02-19 11:47 | 42.03983 | 141.41004 | 11304 ft | 334 kts | 40° |
| 2026-02-19 11:47 | 42.05623 | 141.43112 | 11171 ft | 319 kts | 40° |
| 2026-02-19 11:48 | 42.07188 | 141.45125 | 11039 ft | 305 kts | 40° |
| 2026-02-19 11:48 | 42.10145 | 141.48903 | 10773 ft | 281 kts | 40° |
| 2026-02-19 11:48 | 42.11530 | 141.50687 | 10640 ft | 271 kts | 40° |
| 2026-02-19 11:49 | 42.12933 | 141.52289 | 10500 ft | 259 kts | 30° |
| 2026-02-19 11:49 | 42.14513 | 141.53411 | 10250 ft | 256 kts | 21° |
| 2026-02-19 11:49 | 42.16148 | 141.54339 | 9960 ft | 255 kts | 19° |
| 2026-02-19 11:49 | 42.17839 | 141.55258 | 9799 ft | 269 kts | 19° |
| 2026-02-19 11:50 | 42.19589 | 141.56209 | 9638 ft | 271 kts | 19° |
| 2026-02-19 11:50 | 42.21343 | 141.57167 | 9163 ft | 274 kts | 19° |
| 2026-02-19 11:50 | 42.23121 | 141.58131 | 8759 ft | 275 kts | 19° |
| 2026-02-19 11:50 | 42.24888 | 141.59100 | 8426 ft | 272 kts | 20° |
| 2026-02-19 11:51 | 42.26630 | 141.60053 | 8113 ft | 270 kts | 18° |
| 2026-02-19 11:51 | 42.28369 | 141.60988 | 7809 ft | 269 kts | 18° |
| 2026-02-19 11:51 | 42.30098 | 141.61926 | 7504 ft | 267 kts | 18° |
| 2026-02-19 11:51 | 42.31821 | 141.62869 | 7200 ft | 266 kts | 19° |
| 2026-02-19 11:52 | 42.33530 | 141.63812 | 6896 ft | 265 kts | 19° |
| 2026-02-19 11:52 | 42.36933 | 141.65695 | 6290 ft | 263 kts | 19° |
| 2026-02-19 11:52 | 42.38617 | 141.66630 | 5988 ft | 261 kts | 19° |
| 2026-02-19 11:53 | 42.40298 | 141.67562 | 5680 ft | 260 kts | 19° |
| 2026-02-19 11:53 | 42.41943 | 141.68474 | 5384 ft | 258 kts | 18° |
| 2026-02-19 11:53 | 42.43603 | 141.69376 | 5094 ft | 257 kts | 18° |
| 2026-02-19 11:53 | 42.45273 | 141.70209 | 4790 ft | 254 kts | 15° |
| 2026-02-19 11:54 | 42.46950 | 141.70919 | 4520 ft | 250 kts | 11° |
| 2026-02-19 11:54 | 42.48598 | 141.71494 | 4382 ft | 239 kts | 8° |
| 2026-02-19 11:54 | 42.50188 | 141.71942 | 4262 ft | 229 kts | 5° |
| 2026-02-19 11:55 | 42.53204 | 141.72507 | 4004 ft | 210 kts | 359° |
| 2026-02-19 11:55 | 42.54629 | 141.72646 | 3894 ft | 201 kts | 358° |
| 2026-02-19 11:55 | 42.56003 | 141.72725 | 3790 ft | 194 kts | 358° |
| 2026-02-19 11:55 | 42.57317 | 141.72827 | 3720 ft | 183 kts | 354° |
| 2026-02-19 11:56 | 42.58546 | 141.72696 | 3576 ft | 173 kts | 348° |
| 2026-02-19 11:56 | 42.60896 | 141.72327 | 3085 ft | 167 kts | 347° |
| 2026-02-19 11:56 | 42.62042 | 141.72131 | 2846 ft | 164 kts | 347° |
| 2026-02-19 11:57 | 42.63138 | 141.71938 | 2626 ft | 153 kts | 347° |
| 2026-02-19 11:57 | 42.64123 | 141.71767 | 2433 ft | 143 kts | 348° |
| 2026-02-19 11:57 | 42.65083 | 141.71598 | 2255 ft | 136 kts | 347° |
| 2026-02-19 11:57 | 42.66009 | 141.71432 | 2076 ft | 131 kts | 347° |
| 2026-02-19 11:58 | 42.66894 | 141.71278 | 1895 ft | 126 kts | 348° |
| 2026-02-19 11:58 | 42.67740 | 141.71131 | 1742 ft | 121 kts | 349° |
| 2026-02-19 11:58 | 42.68558 | 141.70989 | 1589 ft | 120 kts | 348° |
| 2026-02-19 11:58 | 42.69384 | 141.70841 | 1430 ft | 120 kts | 349° |
| 2026-02-19 11:59 | 42.70212 | 141.70694 | 1265 ft | 121 kts | 349° |
| 2026-02-19 11:59 | 42.71045 | 141.70546 | 1114 ft | 121 kts | 351° |
| 2026-02-19 11:59 | 42.71887 | 141.70421 | 961 ft | 122 kts | 352° |
| 2026-02-19 11:59 | 42.72726 | 141.70264 | 788 ft | 122 kts | 349° |
| 2026-02-19 12:00 | 42.73563 | 141.70103 | 615 ft | 122 kts | 350° |
| 2026-02-19 12:00 | 42.75242 | 141.69814 | 301 ft | 122 kts | 351° |
| 2026-02-19 12:00 | 42.76090 | 141.69665 | 144 ft | 123 kts | 352° |
| 2026-02-19 12:01 | 42.76927 | 141.69517 | 70 ft | 110 kts | 353° |
| 2026-02-19 12:01 | 42.77556 | 141.69407 | 69 ft | 73 kts | 352° |
| 2026-02-19 12:01 | 42.77929 | 141.69341 | 67 ft | 37 kts | 354° |
| 2026-02-19 12:01 | 42.78186 | 141.69281 | 68 ft | 38 kts | 337° |
| 2026-02-19 12:02 | 42.78403 | 141.69086 | 65 ft | 34 kts | 321° |
| 2026-02-19 12:02 | 42.78438 | 141.68896 | 69 ft | 23 kts | 263° |
| 2026-02-19 12:02 | 42.78426 | 141.68681 | 71 ft | 14 kts | 295° |
| 2026-02-19 12:02 | 42.78503 | 141.68645 | 66 ft | 16 kts | 352° |
| 2026-02-19 12:03 | 42.78611 | 141.68625 | 63 ft | 16 kts | 352° |
| 2026-02-19 12:03 | 42.78728 | 141.68604 | 69 ft | 17 kts | 352° |
| 2026-02-19 12:03 | 42.78861 | 141.68576 | 68 ft | 23 kts | 347° |
| 2026-02-19 12:03 | 42.79029 | 141.68477 | 67 ft | 28 kts | 327° |
| 2026-02-19 12:04 | 42.79136 | 141.68341 | 74 ft | 5 kts | 289° |
| 2026-02-19 12:04 | 42.79035 | 141.68243 | 74 ft | 15 kts | 152° |
| 2026-02-19 12:04 | 42.78953 | 141.68329 | 64 ft | 12 kts | 144° |
| 2026-02-19 12:05 | 42.78879 | 141.68390 | 64 ft | 15 kts | 158° |
| 2026-02-19 12:05 | 42.78772 | 141.68413 | 66 ft | 12 kts | 176° |
| 2026-02-19 12:05 | 42.78707 | 141.68414 | 70 ft | 12 kts | 182° |
| 2026-02-19 12:05 | 42.78589 | 141.68377 | 68 ft | 22 kts | 200° |
| 2026-02-19 12:06 | 42.78473 | 141.68281 | 66 ft | 16 kts | 219° |
| 2026-02-19 12:06 | 42.78362 | 141.68237 | 66 ft | 12 kts | 176° |
| 2026-02-19 12:06 | 42.78284 | 141.68206 | 67 ft | 9 kts | 204° |
| 2026-02-19 12:06 | 42.78246 | 141.68182 | 65 ft | 2 kts | 204° |
| 2026-02-19 12:07 | 42.78235 | 141.68176 | 74 ft | 0 kts | 204° |